Time;durP1;ratioP1;P1;durP2;ratioP2;P2;SDS_P1;SDS_P2;PMS_P1;PMS_P2;Temp;Humidity;BMP_temperature;BMP_pressure;BME280_temperature;BME280_humidity;BME280_pressure;Samples;Min_cycle;Max_cycle;Signal;HPM_P1;HPM_P2
2023/06/10 00:01:38;;;;;;;13.05;8.25;;;512.70;2380.80;;;;;;5033908;28;20120;-81
2023/06/10 00:04:04;;;;;;;13.80;8.30;;;512.70;2380.80;;;;;;5034899;28;20434;-82
2023/06/10 00:06:35;;;;;;;16.65;8.55;;;512.60;2380.80;;;;;;5033631;28;20049;-82
2023/06/10 00:09:04;;;;;;;14.27;8.23;;;512.60;2380.80;;;;;;5033897;28;20132;-82
2023/06/10 00:11:33;;;;;;;11.32;7.80;;;512.60;2380.80;;;;;;5033524;28;20472;-81
2023/06/10 00:14:00;;;;;;;11.02;6.55;;;512.60;2380.80;;;;;;5034622;28;20025;-81
2023/06/10 00:16:26;;;;;;;10.32;5.82;;;512.30;2380.80;;;;;;5036643;28;20026;-79
2023/06/10 00:18:51;;;;;;;8.35;5.97;;;512.50;2380.80;;;;;;5049518;28;20063;-83
2023/06/10 00:21:18;;;;;;;8.63;5.85;;;512.50;2380.80;;;;;;5034048;28;20128;-83
2023/06/10 00:23:45;;;;;;;16.10;6.10;;;512.50;2380.80;;;;;;5033566;28;20032;-83
2023/06/10 00:26:10;;;;;;;10.45;5.22;;;512.50;2380.80;;;;;;5033643;28;20029;-83
2023/06/10 00:28:36;;;;;;;11.25;5.47;;;512.50;2380.80;;;;;;5033530;28;20470;-84
2023/06/10 00:31:04;;;;;;;10.68;6.38;;;512.20;2380.80;;;;;;5033558;28;20026;-82
2023/06/10 00:33:30;;;;;;;8.55;6.30;;;512.30;2380.80;;;;;;5033407;28;20021;-83
2023/06/10 00:35:55;;;;;;;10.57;6.53;;;512.40;2380.80;;;;;;5033770;28;20112;-85
2023/06/10 00:38:21;;;;;;;12.25;5.95;;;512.40;2380.80;;;;;;5034702;28;20040;-83
2023/06/10 00:40:47;;;;;;;8.57;5.95;;;512.50;2380.80;;;;;;5033561;28;20025;-83
2023/06/10 00:43:13;;;;;;;8.38;5.60;;;512.40;2380.80;;;;;;5033065;28;20026;-84
2023/06/10 00:45:39;;;;;;;8.35;6.07;;;512.30;2380.80;;;;;;5033428;28;20029;-83
2023/06/10 00:48:05;;;;;;;9.48;5.90;;;512.40;2380.80;;;;;;5034281;28;20026;-83
2023/06/10 00:50:31;;;;;;;12.50;5.80;;;512.30;2380.80;;;;;;5033164;28;20025;-82
2023/06/10 00:53:00;;;;;;;9.48;5.53;;;512.30;2380.80;;;;;;5033043;28;20029;-81
2023/06/10 00:55:27;;;;;;;10.52;5.97;;;512.20;2380.80;;;;;;5032956;28;20457;-81
2023/06/10 00:57:54;;;;;;;13.05;6.70;;;512.20;2380.80;;;;;;5034076;28;20034;-80
2023/06/10 01:00:20;;;;;;;10.05;6.00;;;512.70;2380.80;;;;;;5032571;28;20465;-80
2023/06/10 01:02:46;;;;;;;10.15;6.05;;;512.20;2380.80;;;;;;5032773;28;20030;-79
2023/06/10 01:05:12;;;;;;;10.10;6.05;;;512.20;2380.80;;;;;;5032485;28;20409;-80
2023/06/10 01:07:53;;;;;;;9.15;6.60;;;512.30;2380.80;;;;;;5032041;28;20033;-80
2023/06/10 01:10:28;;;;;;;9.77;6.65;;;512.30;2380.80;;;;;;5032609;28;20021;-79
2023/06/10 01:13:08;;;;;;;8.93;6.60;;;512.20;2380.80;;;;;;5032591;28;20025;-80
2023/06/10 01:15:35;;;;;;;14.45;5.47;;;512.20;2380.80;;;;;;5051458;28;20116;-83
2023/06/10 01:18:08;;;;;;;7.35;5.32;;;512.20;2380.80;;;;;;5052345;28;20066;-82
2023/06/10 01:20:36;;;;;;;11.35;6.05;;;512.20;2380.80;;;;;;5053997;28;20029;-82
2023/06/10 01:23:03;;;;;;;7.82;5.68;;;512.30;2380.80;;;;;;5052441;28;20381;-82
2023/06/10 01:25:32;;;;;;;8.65;6.22;;;512.20;2380.80;;;;;;5052663;28;20370;-82
2023/06/10 01:28:15;;;;;;;8.35;5.50;;;512.30;2380.80;;;;;;5052368;28;20032;-81
2023/06/10 01:31:21;;;;;;;8.88;5.32;;;512.20;2380.80;;;;;;5052703;28;20025;-83
2023/06/10 01:33:51;;;;;;;14.93;5.45;;;512.20;2380.80;;;;;;5052441;28;20448;-83
2023/06/10 01:36:18;;;;;;;8.90;5.95;;;512.30;2380.80;;;;;;5052292;28;20064;-83
2023/06/10 01:38:47;;;;;;;10.70;6.47;;;512.10;2380.80;;;;;;5053284;28;20473;-81
2023/06/10 01:41:15;;;;;;;7.88;5.38;;;512.10;2380.80;;;;;;5052266;28;20029;-81
2023/06/10 01:43:43;;;;;;;13.57;6.18;;;512.20;2380.80;;;;;;5052195;28;20082;-80
2023/06/10 01:46:09;;;;;;;11.93;5.93;;;512.20;2380.80;;;;;;5053479;28;20032;-82
2023/06/10 01:48:35;;;;;;;12.25;6.68;;;512.00;2380.80;;;;;;5052371;28;20033;-81
2023/06/10 01:51:01;;;;;;;7.18;5.68;;;512.10;2380.80;;;;;;5051968;28;20449;-83
2023/06/10 01:53:26;;;;;;;8.77;5.40;;;512.10;2380.80;;;;;;5052109;28;20028;-81
2023/06/10 01:55:52;;;;;;;17.17;6.22;;;512.00;2380.80;;;;;;5051971;28;20118;-82
2023/06/10 01:58:18;;;;;;;9.50;6.10;;;487.30;2380.80;;;;;;5052114;28;20461;-81
2023/06/10 02:00:44;;;;;;;9.65;5.45;;;487.30;2380.80;;;;;;5052114;28;20395;-82
2023/06/10 02:03:09;;;;;;;6.85;5.10;;;487.20;2380.80;;;;;;5053213;28;20079;-82
2023/06/10 02:05:35;;;;;;;6.63;5.30;;;487.30;2380.80;;;;;;5051845;28;20107;-81
2023/06/10 02:08:01;;;;;;;9.27;6.00;;;487.30;2380.80;;;;;;5052139;28;20460;-83
2023/06/10 02:10:27;;;;;;;8.40;5.70;;;487.20;2380.80;;;;;;5051845;28;20025;-82
2023/06/10 02:12:53;;;;;;;8.25;5.82;;;487.30;2380.80;;;;;;5052089;28;20078;-81
2023/06/10 02:15:19;;;;;;;13.00;6.47;;;487.30;2380.80;;;;;;5052462;28;20119;-80
2023/06/10 02:17:44;;;;;;;8.95;5.65;;;487.20;2380.80;;;;;;5076648;28;20041;-81
2023/06/10 02:20:11;;;;;;;13.20;6.22;;;487.20;2380.80;;;;;;5065727;28;20029;-81
2023/06/10 02:22:37;;;;;;;9.23;5.35;;;487.10;2380.80;;;;;;5055831;28;20035;-82
2023/06/10 02:25:05;;;;;;;8.82;5.88;;;487.20;2380.80;;;;;;5055897;28;20025;-83
2023/06/10 02:27:31;;;;;;;10.75;5.75;;;487.20;2380.80;;;;;;5055876;28;20063;-82
2023/06/10 02:29:57;;;;;;;9.32;5.90;;;487.20;2380.80;;;;;;5057098;28;20028;-83
2023/06/10 02:32:23;;;;;;;16.38;6.70;;;487.20;2380.80;;;;;;5055456;28;20025;-83
2023/06/10 02:34:49;;;;;;;8.38;5.65;;;487.20;2380.80;;;;;;5055626;28;20032;-82
2023/06/10 02:37:16;;;;;;;8.80;6.22;;;487.30;2380.80;;;;;;5055562;28;20086;-82
2023/06/10 02:39:42;;;;;;;9.52;6.40;;;487.30;2380.80;;;;;;5050181;28;20033;-82
2023/06/10 02:42:07;;;;;;;11.00;6.47;;;487.20;2380.80;;;;;;5052169;28;20048;-82
2023/06/10 02:44:33;;;;;;;10.38;6.43;;;487.00;2380.80;;;;;;5036846;28;20022;-82
2023/06/10 02:46:59;;;;;;;16.35;6.72;;;487.00;2380.80;;;;;;5051494;28;20109;-83
2023/06/10 02:49:27;;;;;;;14.02;7.07;;;486.90;2380.80;;;;;;5042943;28;20029;-83
2023/06/10 02:51:53;;;;;;;11.57;6.47;;;487.00;2380.80;;;;;;5056165;28;20376;-82
2023/06/10 02:54:20;;;;;;;10.63;6.28;;;487.00;2380.80;;;;;;5071904;28;20059;-82
2023/06/10 02:56:47;;;;;;;10.10;6.47;;;487.00;2380.80;;;;;;5071915;28;20036;-82
2023/06/10 02:59:14;;;;;;;10.55;6.60;;;487.10;2380.80;;;;;;5071646;28;20465;-83
2023/06/10 03:01:40;;;;;;;10.13;6.70;;;487.20;2380.80;;;;;;5071806;28;20136;-83
2023/06/10 03:04:07;;;;;;;9.32;6.55;;;512.00;2380.80;;;;;;5071493;28;20021;-82
2023/06/10 03:06:33;;;;;;;8.27;6.53;;;486.80;2380.80;;;;;;5071569;28;20056;-82
2023/06/10 03:09:10;;;;;;;14.90;6.05;;;486.80;2380.80;;;;;;5056579;28;20021;-82
2023/06/10 03:11:35;;;;;;;8.73;6.60;;;486.70;2380.80;;;;;;5071721;28;20024;-82
2023/06/10 03:14:01;;;;;;;8.70;5.80;;;487.00;2380.80;;;;;;5056068;28;20413;-83
2023/06/10 03:16:27;;;;;;;10.15;5.78;;;487.10;2380.80;;;;;;5056139;28;20021;-82
2023/06/10 03:18:53;;;;;;;10.95;6.22;;;487.10;2380.80;;;;;;5071564;28;20040;-82
2023/06/10 03:21:20;;;;;;;8.80;6.15;;;487.20;2380.80;;;;;;5071100;28;20029;-82
2023/06/10 03:23:46;;;;;;;9.10;5.90;;;487.10;2380.80;;;;;;5069759;28;20055;-82
2023/06/10 03:26:14;;;;;;;9.05;6.28;;;487.10;2380.80;;;;;;5053640;28;20023;-82
2023/06/10 03:28:40;;;;;;;9.60;6.07;;;487.10;2380.80;;;;;;5054603;28;20091;-82
2023/06/10 03:31:06;;;;;;;8.85;6.18;;;487.10;2380.80;;;;;;5053764;28;20472;-82
2023/06/10 03:33:32;;;;;;;11.15;6.68;;;487.10;2380.80;;;;;;5054479;28;20135;-83
2023/06/10 03:35:58;;;;;;;10.32;6.45;;;487.20;2380.80;;;;;;5055764;28;20038;-83
2023/06/10 03:38:24;;;;;;;10.88;5.68;;;487.10;2380.80;;;;;;5054647;28;20033;-82
2023/06/10 03:40:49;;;;;;;12.25;6.97;;;487.20;2380.80;;;;;;5054379;28;20538;-83
2023/06/10 03:43:15;;;;;;;9.63;6.15;;;487.20;2380.80;;;;;;5054462;28;20033;-83
2023/06/10 03:45:41;;;;;;;7.90;6.80;;;487.20;2380.80;;;;;;5054466;28;20025;-82
2023/06/10 03:48:08;;;;;;;8.48;6.60;;;487.20;2380.80;;;;;;5054334;28;20056;-83
2023/06/10 03:50:34;;;;;;;7.65;6.30;;;487.20;2380.80;;;;;;5055675;28;20075;-83
2023/06/10 03:53:00;;;;;;;8.15;5.70;;;487.30;2380.80;;;;;;5054382;28;20037;-83
2023/06/10 03:55:26;;;;;;;10.95;6.10;;;487.20;2380.80;;;;;;5054123;28;20100;-83
2023/06/10 03:57:52;;;;;;;12.73;7.15;;;487.30;2380.80;;;;;;5054370;28;20086;-83
2023/06/10 04:00:18;;;;;;;15.10;7.88;;;487.20;2380.80;;;;;;5054120;28;20037;-82
2023/06/10 04:02:49;;;;;;;10.32;7.75;;;487.20;2380.80;;;;;;5054222;28;20028;-83
2023/06/10 04:05:21;;;;;;;9.57;6.93;;;487.10;2380.80;;;;;;5054009;28;20044;-83
2023/06/10 04:07:48;;;;;;;12.80;6.65;;;487.10;2380.80;;;;;;5054057;28;20083;-83
2023/06/10 04:10:14;;;;;;;6.80;5.40;;;487.10;2380.80;;;;;;5055074;28;20029;-83
2023/06/10 04:12:40;;;;;;;9.98;6.00;;;487.10;2380.80;;;;;;5053996;28;20102;-83
2023/06/10 04:15:06;;;;;;;12.05;6.53;;;487.20;2380.80;;;;;;5055045;28;20025;-83
2023/06/10 04:17:32;;;;;;;11.77;5.82;;;487.20;2380.80;;;;;;5053466;28;20445;-82
2023/06/10 04:19:58;;;;;;;7.28;6.50;;;487.20;2380.80;;;;;;5053828;28;20112;-82
2023/06/10 04:22:24;;;;;;;8.10;6.18;;;487.20;2380.80;;;;;;5053764;28;20051;-83
2023/06/10 04:24:50;;;;;;;8.60;6.70;;;487.20;2380.80;;;;;;5053362;28;20029;-83
2023/06/10 04:27:16;;;;;;;11.07;6.50;;;487.00;2380.80;;;;;;5053696;28;20025;-82
2023/06/10 04:29:41;;;;;;;15.55;6.90;;;487.00;2380.80;;;;;;5053321;28;20036;-82
2023/06/10 04:32:07;;;;;;;9.57;6.10;;;487.00;2380.80;;;;;;5053580;28;20021;-82
2023/06/10 04:34:34;;;;;;;7.70;6.43;;;487.10;2380.80;;;;;;5053488;28;20453;-84
2023/06/10 04:37:00;;;;;;;6.25;5.30;;;487.10;2380.80;;;;;;5053161;28;20112;-82
2023/06/10 04:39:26;;;;;;;9.52;5.72;;;487.20;2380.80;;;;;;5053439;28;20568;-84
2023/06/10 04:41:52;;;;;;;10.82;6.10;;;487.20;2380.80;;;;;;5054272;28;20060;-84
2023/06/10 04:44:18;;;;;;;11.55;6.13;;;487.20;2380.80;;;;;;5052985;28;20326;-82
2023/06/10 04:46:45;;;;;;;12.52;6.15;;;487.20;2380.80;;;;;;5053329;28;20029;-81
2023/06/10 04:49:14;;;;;;;13.35;6.43;;;512.00;2380.80;;;;;;5053375;28;20136;-81
2023/06/10 04:51:40;;;;;;;7.20;5.60;;;487.20;2380.80;;;;;;5052944;28;20527;-83
2023/06/10 04:54:06;;;;;;;8.32;5.43;;;487.00;2380.80;;;;;;5053222;28;20056;-81
2023/06/10 04:56:32;;;;;;;7.55;5.35;;;487.30;2380.80;;;;;;5053175;28;20025;-83
2023/06/10 04:58:59;;;;;;;11.50;6.05;;;487.30;2380.80;;;;;;5052778;28;20037;-81
2023/06/10 05:01:25;;;;;;;10.43;5.47;;;487.20;2380.80;;;;;;5053097;28;20039;-81
2023/06/10 05:03:51;;;;;;;7.88;5.65;;;487.20;2380.80;;;;;;5053181;28;20029;-80
2023/06/10 05:06:17;;;;;;;11.63;6.45;;;487.30;2380.80;;;;;;5052255;28;20560;-83
2023/06/10 05:08:43;;;;;;;10.25;6.28;;;487.30;2380.80;;;;;;5054138;28;20112;-83
2023/06/10 05:11:08;;;;;;;12.57;6.90;;;512.00;2380.80;;;;;;5052872;28;20362;-83
2023/06/10 05:13:34;;;;;;;10.40;5.80;;;512.00;2380.80;;;;;;5052609;28;20116;-82
2023/06/10 05:16:01;;;;;;;9.48;5.95;;;512.10;2380.80;;;;;;5052702;28;20025;-82
2023/06/10 05:18:27;;;;;;;8.35;5.07;;;512.10;2380.80;;;;;;5052383;28;20025;-82
2023/06/10 05:20:53;;;;;;;12.07;5.95;;;512.20;2380.80;;;;;;5052432;28;20044;-81
2023/06/10 05:23:20;;;;;;;10.90;5.93;;;512.10;2380.80;;;;;;5052277;28;20079;-82
2023/06/10 05:25:46;;;;;;;11.05;5.05;;;512.20;2380.80;;;;;;5051995;28;20025;-82
2023/06/10 05:28:11;;;;;;;7.78;5.32;;;512.30;2380.80;;;;;;5054102;28;20044;-82
2023/06/10 05:30:37;;;;;;;10.23;6.22;;;512.30;2380.80;;;;;;5052517;28;20112;-82
2023/06/10 05:33:04;;;;;;;7.18;5.55;;;512.30;2380.80;;;;;;5052384;28;20029;-82
2023/06/10 05:35:31;;;;;;;8.80;5.95;;;512.50;2380.80;;;;;;5052481;28;20020;-82
2023/06/10 05:37:56;;;;;;;12.02;6.30;;;512.50;2380.80;;;;;;5053786;28;20468;-82
2023/06/10 05:40:23;;;;;;;9.88;6.53;;;512.50;2380.80;;;;;;5052294;28;20040;-82
2023/06/10 05:42:49;;;;;;;8.85;6.55;;;512.50;2380.80;;;;;;5053801;28;20029;-82
2023/06/10 05:45:15;;;;;;;11.35;6.40;;;512.60;2380.80;;;;;;5052418;28;20091;-82
2023/06/10 05:47:41;;;;;;;8.10;6.43;;;512.60;2380.80;;;;;;5052106;28;20123;-82
2023/06/10 05:50:08;;;;;;;9.98;6.88;;;512.60;2380.80;;;;;;5052417;28;20447;-82
2023/06/10 05:52:34;;;;;;;15.57;6.32;;;512.60;2380.80;;;;;;5052529;28;20061;-82
2023/06/10 05:55:00;;;;;;;14.30;6.95;;;512.70;2380.80;;;;;;5053767;28;20025;-83
2023/06/10 05:57:26;;;;;;;11.20;6.15;;;512.80;2380.80;;;;;;5056250;28;20029;-82
2023/06/10 05:59:52;;;;;;;8.18;6.22;;;512.70;2380.80;;;;;;5056521;28;20025;-81
2023/06/10 06:02:18;;;;;;;9.43;6.43;;;512.70;2380.80;;;;;;5056121;28;20025;-83
2023/06/10 06:04:44;;;;;;;9.30;6.30;;;512.80;2380.80;;;;;;5056231;28;20025;-82
2023/06/10 06:07:10;;;;;;;9.13;5.28;;;512.80;2380.80;;;;;;5057453;28;20119;-81
2023/06/10 06:09:36;;;;;;;7.82;6.03;;;512.90;2380.80;;;;;;5056013;28;20115;-82
2023/06/10 06:12:01;;;;;;;7.95;5.28;;;512.90;2380.80;;;;;;5056103;28;20457;-82
2023/06/10 06:14:31;;;;;;;11.05;5.57;;;537.70;2406.40;;;;;;5055972;28;20025;-83
2023/06/10 06:16:57;;;;;;;10.70;5.57;;;537.80;2406.40;;;;;;5076205;28;20013;-82
2023/06/10 06:19:23;;;;;;;8.20;5.95;;;537.80;2406.40;;;;;;5072977;28;20408;-81
2023/06/10 06:21:49;;;;;;;8.82;5.50;;;538.00;2406.40;;;;;;5055901;28;20468;-82
2023/06/10 06:24:16;;;;;;;11.80;5.70;;;537.90;2406.40;;;;;;5057367;28;20032;-82
2023/06/10 06:26:42;;;;;;;8.52;5.70;;;538.30;2406.40;;;;;;5056960;28;20028;-82
2023/06/10 06:29:07;;;;;;;7.18;5.70;;;538.30;2406.40;;;;;;5055487;28;20029;-82
2023/06/10 06:31:33;;;;;;;9.38;5.03;;;538.30;2406.40;;;;;;5055730;28;20029;-82
2023/06/10 06:33:59;;;;;;;8.07;5.57;;;538.20;2406.40;;;;;;5056963;28;20028;-83
2023/06/10 06:36:25;;;;;;;9.80;6.47;;;538.30;2406.40;;;;;;5056726;28;20120;-82
2023/06/10 06:38:51;;;;;;;11.40;6.20;;;538.40;2406.40;;;;;;5055559;28;20033;-83
2023/06/10 06:41:17;;;;;;;9.82;5.85;;;538.50;2406.40;;;;;;5055505;28;20025;-82
2023/06/10 06:43:43;;;;;;;9.32;4.78;;;563.20;2432.00;;;;;;5055228;28;20424;-82
2023/06/10 06:46:09;;;;;;;8.52;4.60;;;563.20;2432.00;;;;;;5055299;28;20029;-82
2023/06/10 06:48:35;;;;;;;8.73;5.05;;;563.20;2432.00;;;;;;5053257;28;20045;-82
2023/06/10 06:51:01;;;;;;;10.82;6.13;;;563.20;2432.00;;;;;;5050175;28;20079;-83
2023/06/10 06:53:27;;;;;;;8.25;6.28;;;563.20;2432.00;;;;;;5035283;28;20390;-82
2023/06/10 06:55:53;;;;;;;10.35;6.10;;;563.30;2432.00;;;;;;5035177;28;20029;-81
2023/06/10 06:58:19;;;;;;;10.10;5.40;;;563.50;2432.00;;;;;;5035129;28;20056;-83
2023/06/10 07:00:44;;;;;;;8.18;5.30;;;563.60;2432.00;;;;;;5035278;28;20116;-82
2023/06/10 07:03:11;;;;;;;7.60;5.22;;;563.60;2432.00;;;;;;5035078;28;20028;-81
2023/06/10 07:05:37;;;;;;;7.07;4.97;;;563.70;2432.00;;;;;;5034958;28;20049;-81
2023/06/10 07:08:03;;;;;;;7.72;4.90;;;563.80;2432.00;;;;;;5036101;28;20048;-82
2023/06/10 07:10:29;;;;;;;8.32;5.07;;;563.80;2432.00;;;;;;5035016;28;20029;-82
2023/06/10 07:12:55;;;;;;;6.78;4.60;;;563.70;2432.00;;;;;;5034815;28;20076;-82
2023/06/10 07:15:20;;;;;;;9.52;5.70;;;563.70;2432.00;;;;;;5036288;28;20032;-83
2023/06/10 07:17:46;;;;;;;8.32;5.35;;;563.80;2432.00;;;;;;5034657;28;20030;-82
2023/06/10 07:20:14;;;;;;;11.70;5.47;;;563.80;2432.00;;;;;;5036544;28;20036;-82
2023/06/10 07:22:40;;;;;;;11.10;4.85;;;563.90;2432.00;;;;;;5034781;28;20084;-80
2023/06/10 07:25:07;;;;;;;7.25;5.10;;;563.90;2432.00;;;;;;5034680;28;20381;-82
2023/06/10 07:27:32;;;;;;;9.00;4.95;;;564.00;2432.00;;;;;;5036104;28;20025;-82
2023/06/10 07:30:00;;;;;;;9.50;5.47;;;564.10;2432.00;;;;;;5035308;28;20026;-82
2023/06/10 07:32:26;;;;;;;8.98;5.13;;;564.10;2432.00;;;;;;5034885;28;20476;-82
2023/06/10 07:34:52;;;;;;;9.40;5.30;;;564.10;2432.00;;;;;;5035936;28;20025;-82
2023/06/10 07:37:19;;;;;;;8.85;4.97;;;588.80;2432.00;;;;;;5034776;28;20052;-83
2023/06/10 07:39:45;;;;;;;9.77;4.57;;;588.90;2432.00;;;;;;5034496;28;20026;-83
2023/06/10 07:42:11;;;;;;;12.02;4.93;;;589.00;2432.00;;;;;;5034306;28;20026;-84
2023/06/10 07:44:37;;;;;;;7.63;4.57;;;589.00;2432.00;;;;;;5034641;28;20022;-83
2023/06/10 07:47:03;;;;;;;6.95;4.18;;;589.00;2432.00;;;;;;5035537;28;20116;-81
2023/06/10 07:49:28;;;;;;;7.80;4.40;;;589.00;2432.00;;;;;;5034377;28;20465;-83
2023/06/10 07:51:55;;;;;;;7.13;4.05;;;589.00;2432.00;;;;;;5034431;28;20026;-83
2023/06/10 07:54:21;;;;;;;7.95;4.68;;;589.00;2432.00;;;;;;5034191;28;20064;-82
2023/06/10 07:56:47;;;;;;;5.93;4.85;;;589.00;2432.00;;;;;;5034277;28;20428;-81
2023/06/10 07:59:14;;;;;;;6.05;4.40;;;588.80;2432.00;;;;;;5039967;28;20024;-82
2023/06/10 08:01:40;;;;;;;9.05;4.95;;;588.80;2432.00;;;;;;5070232;28;20057;-84
2023/06/10 08:04:06;;;;;;;7.07;4.32;;;564.10;2432.00;;;;;;5055497;28;20028;-83
2023/06/10 08:06:32;;;;;;;6.55;5.03;;;563.90;2432.00;;;;;;5070648;28;20049;-83
2023/06/10 08:08:59;;;;;;;6.40;4.32;;;564.00;2432.00;;;;;;5070981;28;20488;-82
2023/06/10 08:11:28;;;;;;;7.53;5.13;;;564.00;2432.00;;;;;;5070564;28;20025;-82
2023/06/10 08:13:54;;;;;;;5.95;5.28;;;564.00;2432.00;;;;;;5070421;28;20021;-83
2023/06/10 08:16:20;;;;;;;6.15;5.15;;;563.90;2432.00;;;;;;5054247;28;20569;-83
2023/06/10 08:18:45;;;;;;;7.45;5.25;;;563.90;2432.00;;;;;;5069747;28;20119;-82
2023/06/10 08:21:11;;;;;;;7.25;5.32;;;563.90;2432.00;;;;;;5070257;28;20123;-83
2023/06/10 08:23:37;;;;;;;7.22;5.18;;;563.90;2432.00;;;;;;5070485;28;20033;-82
2023/06/10 08:26:03;;;;;;;6.32;5.47;;;563.90;2432.00;;;;;;5070307;28;20028;-80
2023/06/10 08:28:29;;;;;;;8.93;5.85;;;563.90;2432.00;;;;;;5070032;28;20029;-80
2023/06/10 08:30:54;;;;;;;9.95;6.10;;;563.90;2432.00;;;;;;5054889;28;20032;-79
2023/06/10 08:33:20;;;;;;;9.63;6.25;;;564.00;2432.00;;;;;;5070280;28;20461;-83
2023/06/10 08:35:46;;;;;;;8.88;6.60;;;564.00;2432.00;;;;;;5054614;28;20029;-80
2023/06/10 08:38:12;;;;;;;8.77;5.60;;;564.10;2432.00;;;;;;5069832;28;20036;-81
2023/06/10 08:40:37;;;;;;;6.78;6.03;;;588.80;2432.00;;;;;;5055021;28;20029;-80
2023/06/10 08:43:08;;;;;;;10.88;6.47;;;588.90;2432.00;;;;;;5069700;28;20029;-80
2023/06/10 08:45:37;;;;;;;7.57;5.25;;;589.00;2432.00;;;;;;5069909;28;20025;-81
2023/06/10 08:48:08;;;;;;;6.00;5.40;;;589.00;2432.00;;;;;;5050913;28;20040;-80
2023/06/10 08:50:38;;;;;;;8.57;6.05;;;589.10;2432.00;;;;;;5049765;28;20032;-81
2023/06/10 08:53:07;;;;;;;5.88;5.25;;;589.20;2432.00;;;;;;5034556;28;20032;-81
2023/06/10 08:55:37;;;;;;;6.65;5.90;;;589.20;2432.00;;;;;;5049810;28;20030;-81
2023/06/10 08:58:03;;;;;;;6.72;6.00;;;589.20;2432.00;;;;;;5049771;28;20033;-81
2023/06/10 09:00:30;;;;;;;6.65;5.53;;;589.20;2432.00;;;;;;5034481;28;20029;-81
2023/06/10 09:02:58;;;;;;;11.73;6.30;;;589.30;2432.00;;;;;;5034562;28;20144;-80
2023/06/10 09:05:24;;;;;;;9.27;6.57;;;589.40;2432.00;;;;;;5034477;28;20413;-81
2023/06/10 09:07:52;;;;;;;8.10;6.38;;;589.40;2432.00;;;;;;5049884;28;20033;-82
2023/06/10 09:10:18;;;;;;;8.60;6.63;;;589.40;2432.00;;;;;;5033091;28;20118;-79
2023/06/10 09:12:44;;;;;;;8.35;6.97;;;589.30;2432.00;;;;;;5049921;28;20076;-82
2023/06/10 09:15:12;;;;;;;7.97;6.65;;;589.30;2432.00;;;;;;5033278;28;20028;-82
2023/06/10 09:17:40;;;;;;;11.35;6.50;;;589.40;2432.00;;;;;;5049330;28;20052;-82
2023/06/10 09:20:07;;;;;;;9.82;7.20;;;589.50;2432.00;;;;;;5032969;28;20061;-82
2023/06/10 09:22:33;;;;;;;8.77;5.95;;;614.40;2432.00;;;;;;5033584;28;20034;-81
2023/06/10 09:25:08;;;;;;;8.00;6.45;;;614.80;2432.00;;;;;;5049159;28;20021;-84
2023/06/10 09:27:49;;;;;;;9.88;6.75;;;614.90;2432.00;;;;;;5049372;28;20030;-84
2023/06/10 09:30:28;;;;;;;7.07;6.07;;;615.10;2432.00;;;;;;5033473;28;20103;-85
2023/06/10 09:32:56;;;;;;;9.48;6.50;;;615.00;2432.00;;;;;;5049193;28;20048;-83
2023/06/10 09:35:26;;;;;;;7.82;7.03;;;614.80;2432.00;;;;;;5034104;28;20026;-83
2023/06/10 09:37:53;;;;;;;9.43;7.93;;;614.70;2432.00;;;;;;5048874;28;20148;-83
2023/06/10 09:40:19;;;;;;;13.43;8.40;;;614.40;2432.00;;;;;;5033856;28;20109;-84
2023/06/10 09:42:45;;;;;;;10.15;9.02;;;589.60;2432.00;;;;;;5049074;28;20029;-81
2023/06/10 09:45:11;;;;;;;11.45;8.95;;;589.50;2432.00;;;;;;5048710;28;20022;-81
2023/06/10 09:47:37;;;;;;;11.02;9.02;;;589.50;2432.00;;;;;;5049077;28;20029;-83
2023/06/10 09:50:03;;;;;;;9.95;8.95;;;589.40;2432.00;;;;;;5047447;28;20034;-82
2023/06/10 09:52:29;;;;;;;10.73;9.63;;;589.40;2432.00;;;;;;5032805;28;20030;-81
2023/06/10 09:55:01;;;;;;;11.85;10.65;;;589.40;2432.00;;;;;;5032191;28;20091;-81
2023/06/10 09:57:32;;;;;;;10.68;9.43;;;589.30;2432.00;;;;;;5032487;28;20038;-79
2023/06/10 09:59:58;;;;;;;11.53;9.53;;;589.30;2432.00;;;;;;5049677;28;20060;-80
2023/06/10 10:02:24;;;;;;;10.20;9.20;;;589.30;2432.00;;;;;;5052190;28;20298;-81
2023/06/10 10:04:50;;;;;;;11.07;10.00;;;589.20;2432.00;;;;;;5051576;28;20116;-80
2023/06/10 10:07:15;;;;;;;11.68;10.50;;;589.50;2432.00;;;;;;5051811;28;20025;-80
2023/06/10 10:09:42;;;;;;;11.73;10.57;;;589.30;2432.00;;;;;;5053267;28;20052;-79
2023/06/10 10:12:14;;;;;;;12.05;10.85;;;589.40;2432.00;;;;;;5053385;28;20021;-80
2023/06/10 10:14:46;;;;;;;11.52;10.40;;;589.50;2432.00;;;;;;5052635;28;20052;-80
2023/06/10 10:17:15;;;;;;;11.05;9.95;;;589.50;2432.00;;;;;;5052208;28;20067;-81
2023/06/10 10:19:48;;;;;;;11.27;10.10;;;589.50;2432.00;;;;;;5051357;28;20025;-81
2023/06/10 10:22:29;;;;;;;12.48;10.40;;;589.60;2432.00;;;;;;5074225;28;20036;-81
2023/06/10 10:25:02;;;;;;;11.32;10.15;;;589.70;2432.00;;;;;;5062274;28;20393;-81
2023/06/10 10:27:49;;;;;;;11.02;9.93;;;614.40;2432.00;;;;;;5051361;28;20037;-81
2023/06/10 10:30:17;;;;;;;10.65;9.65;;;614.40;2432.00;;;;;;5044019;28;20033;-80
2023/06/10 10:33:04;;;;;;;11.00;9.90;;;614.40;2432.00;;;;;;5051923;28;20526;-80
2023/06/10 10:35:32;;;;;;;11.15;10.05;;;614.50;2432.00;;;;;;5052833;28;20111;-82
2023/06/10 10:37:58;;;;;;;9.70;8.60;;;614.80;2432.00;;;;;;5051742;28;20163;-80
2023/06/10 10:40:29;;;;;;;11.80;9.50;;;614.80;2432.00;;;;;;5052747;28;20057;-81
2023/06/10 10:42:56;;;;;;;12.60;9.63;;;615.20;2432.00;;;;;;5055842;28;20376;-81
2023/06/10 10:45:22;;;;;;;9.77;8.25;;;640.10;2432.00;;;;;;5056550;28;20025;-84
2023/06/10 10:47:53;;;;;;;10.30;9.30;;;640.20;2432.00;;;;;;5056850;28;20112;-82
2023/06/10 10:50:20;;;;;;;11.15;9.57;;;640.40;2432.00;;;;;;5055254;28;20033;-82
2023/06/10 10:53:04;;;;;;;9.27;8.38;;;665.70;2432.00;;;;;;5055016;28;20025;-82
2023/06/10 10:55:30;;;;;;;8.55;7.07;;;665.90;2432.00;;;;;;5053837;28;20025;-81
2023/06/10 10:58:02;;;;;;;8.60;7.75;;;666.20;2432.00;;;;;;5047846;28;20535;-82
2023/06/10 11:00:43;;;;;;;9.95;8.48;;;665.90;2432.00;;;;;;5035106;28;20128;-80
2023/06/10 11:03:17;;;;;;;8.82;7.97;;;666.30;2432.00;;;;;;5034512;28;20034;-81
2023/06/10 11:05:48;;;;;;;8.48;7.53;;;666.40;2432.00;;;;;;5034709;28;20055;-82
2023/06/10 11:08:35;;;;;;;8.30;7.40;;;666.50;2432.00;;;;;;5047037;28;20381;-82
2023/06/10 11:11:21;;;;;;;9.15;8.25;;;691.30;2432.00;;;;;;5053782;28;20098;-82
2023/06/10 11:14:09;;;;;;;10.50;9.45;;;691.60;2432.00;;;;;;5055125;28;20028;-81
2023/06/10 11:16:41;;;;;;;10.02;8.93;;;691.50;2432.00;;;;;;5042507;28;20025;-79
2023/06/10 11:19:07;;;;;;;9.23;8.30;;;691.90;2432.00;;;;;;5070992;28;20463;-79
2023/06/10 11:21:55;;;;;;;9.65;8.70;;;691.90;2432.00;;;;;;5070280;28;20029;-78
2023/06/10 11:24:21;;;;;;;9.70;8.68;;;692.00;2432.00;;;;;;5068605;28;20063;-78
2023/06/10 11:26:47;;;;;;;10.25;9.25;;;716.90;2432.00;;;;;;5049179;28;20030;-78
2023/06/10 11:29:15;;;;;;;11.02;9.85;;;716.90;2406.40;;;;;;5034316;28;20120;-78
2023/06/10 11:31:43;;;;;;;11.30;10.20;;;717.10;2380.80;;;;;;5049322;28;20024;-78
2023/06/10 11:34:10;;;;;;;10.55;9.55;;;717.30;2380.80;;;;;;5055753;28;20024;-78
2023/06/10 11:36:44;;;;;;;11.02;10.00;;;717.70;2355.20;;;;;;5070657;28;20075;-77
2023/06/10 11:39:11;;;;;;;11.32;9.82;;;717.70;2304.00;;;;;;5055305;28;20025;-78
2023/06/10 11:41:38;;;;;;;11.25;10.15;;;742.40;2355.20;;;;;;5070754;28;20029;-78
2023/06/10 11:44:08;;;;;;;11.60;10.50;;;742.50;2304.00;;;;;;5053653;28;20112;-78
2023/06/10 11:46:35;;;;;;;11.82;10.65;;;742.90;2355.20;;;;;;5054017;28;20067;-78
2023/06/10 11:49:05;;;;;;;12.13;10.88;;;742.90;2304.00;;;;;;5053884;28;20025;-78
2023/06/10 11:51:40;;;;;;;11.27;9.43;;;742.50;2278.40;;;;;;5053510;28;20460;-79
2023/06/10 11:54:08;;;;;;;11.15;10.07;;;742.50;2278.40;;;;;;5070322;28;20107;-78
2023/06/10 11:56:34;;;;;;;11.50;10.40;;;742.60;2278.40;;;;;;5053722;28;20025;-78
2023/06/10 11:59:05;;;;;;;12.25;11.07;;;742.80;2380.80;;;;;;5054535;28;20381;-77
2023/06/10 12:01:52;;;;;;;10.48;9.48;;;743.00;2278.40;;;;;;5055353;28;20028;-78
2023/06/10 12:04:18;;;;;;;10.75;9.30;;;743.00;2252.80;;;;;;5054721;28;20091;-77
2023/06/10 12:06:51;;;;;;;11.40;10.40;;;743.10;2278.40;;;;;;5054748;28;20428;-78
2023/06/10 12:09:29;;;;;;;12.73;11.52;;;743.10;2304.00;;;;;;5048019;28;20072;-77
2023/06/10 12:12:01;;;;;;;13.65;12.18;;;742.90;2329.60;;;;;;5033328;28;20032;-77
2023/06/10 12:14:56;;;;;;;13.25;12.05;;;743.00;2329.60;;;;;;5033348;28;20084;-78
2023/06/10 12:17:43;;;;;;;12.88;11.75;;;743.20;2252.80;;;;;;5034801;28;20057;-78